Time;durP1;ratioP1;P1;durP2;ratioP2;P2;SDS_P1;SDS_P2;PMS_P1;PMS_P2;Temp;Humidity;BMP_temperature;BMP_pressure;BME280_temperature;BME280_humidity;BME280_pressure;Samples;Min_cycle;Max_cycle;Signal;HPM_P1;HPM_P2
2022/03/02 00:00:55;;;;;;;33.40;22.90;;;5.40;99.90;;;;;;5030800;28;20053;-73
2022/03/02 00:03:20;;;;;;;34.17;23.42;;;5.90;99.90;;;;;;5030442;28;20213;-73
2022/03/02 00:05:46;;;;;;;34.55;21.83;;;5.40;99.90;;;;;;5014611;28;20038;-73
2022/03/02 00:08:12;;;;;;;36.58;24.90;;;5.40;99.90;;;;;;4997723;28;20041;-73
2022/03/02 00:10:38;;;;;;;31.90;22.30;;;6.40;99.90;;;;;;5014213;28;20469;-72
2022/03/02 00:13:03;;;;;;;33.08;23.00;;;5.40;99.90;;;;;;5030473;28;20045;-73
2022/03/02 00:15:29;;;;;;;36.58;23.52;;;5.40;99.90;;;;;;5030599;28;20045;-73
2022/03/02 00:17:56;;;;;;;33.10;22.33;;;5.40;99.90;;;;;;4997541;28;20046;-73
2022/03/02 00:20:22;;;;;;;32.25;22.17;;;6.30;99.90;;;;;;5014534;28;20136;-72
2022/03/02 00:22:48;;;;;;;36.10;23.30;;;5.30;99.90;;;;;;5030194;28;20079;-73
2022/03/02 00:25:13;;;;;;;35.88;23.73;;;5.30;99.90;;;;;;4997552;28;20041;-72
2022/03/02 00:27:39;;;;;;;35.13;23.17;;;5.30;99.90;;;;;;5014313;28;20045;-73
2022/03/02 00:30:10;;;;;;;32.97;22.40;;;5.30;99.90;;;;;;5030227;28;20038;-72
2022/03/02 00:32:38;;;;;;;31.38;21.33;;;6.70;99.90;;;;;;5030057;28;20145;-73
2022/03/02 00:35:05;;;;;;;36.22;25.48;;;5.30;99.90;;;;;;5013864;28;20186;-73
2022/03/02 00:37:31;;;;;;;36.53;23.75;;;5.30;99.90;;;;;;5030196;28;20050;-73
2022/03/02 00:39:57;;;;;;;38.20;25.02;;;5.30;99.90;;;;;;5030275;28;20072;-73
2022/03/02 00:42:22;;;;;;;35.25;23.23;;;5.30;99.90;;;;;;5030095;28;20041;-72
2022/03/02 00:44:48;;;;;;;39.08;24.95;;;5.20;99.90;;;;;;5030208;28;20052;-73
2022/03/02 00:47:15;;;;;;;37.20;23.30;;;5.20;99.90;;;;;;5013845;28;20077;-73
2022/03/02 00:49:41;;;;;;;36.83;24.60;;;5.20;99.90;;;;;;5030115;28;20034;-72
2022/03/02 00:52:10;;;;;;;36.80;24.05;;;5.20;99.90;;;;;;5014915;28;20436;-72
2022/03/02 00:54:36;;;;;;;37.55;24.17;;;5.20;99.90;;;;;;5017942;28;20045;-72
2022/03/02 00:57:01;;;;;;;36.65;24.50;;;5.20;99.90;;;;;;5033912;28;20045;-73
2022/03/02 00:59:27;;;;;;;35.85;24.83;;;5.20;99.90;;;;;;5033972;28;20397;-72
2022/03/02 01:01:53;;;;;;;36.35;24.75;;;5.50;99.90;;;;;;5034374;28;20053;-72
2022/03/02 01:04:19;;;;;;;41.17;24.80;;;5.10;99.90;;;;;;5017302;28;20042;-72
2022/03/02 01:06:45;;;;;;;37.72;24.58;;;5.10;99.90;;;;;;5033954;28;20501;-73
2022/03/02 01:09:11;;;;;;;36.83;23.33;;;5.10;99.90;;;;;;5033931;28;20041;-73
2022/03/02 01:11:36;;;;;;;37.85;25.27;;;5.10;99.90;;;;;;5033806;28;20034;-73
2022/03/02 01:14:02;;;;;;;38.80;25.05;;;5.40;99.90;;;;;;5017090;28;20068;-72
2022/03/02 01:16:28;;;;;;;37.50;24.08;;;5.10;99.90;;;;;;5033874;28;20388;-72
2022/03/02 01:18:54;;;;;;;35.35;22.85;;;5.10;99.90;;;;;;5017402;28;20081;-72
2022/03/02 01:21:20;;;;;;;36.05;22.73;;;5.10;99.90;;;;;;5016933;28;20077;-72
2022/03/02 01:23:46;;;;;;;38.47;24.48;;;5.10;99.90;;;;;;5033237;28;20124;-72
2022/03/02 01:26:12;;;;;;;38.03;23.80;;;5.30;99.90;;;;;;5033278;28;20600;-73
2022/03/02 01:28:37;;;;;;;36.55;23.42;;;5.10;99.90;;;;;;5033013;28;20041;-72
2022/03/02 01:31:03;;;;;;;38.47;23.83;;;5.10;99.90;;;;;;5000742;28;20401;-73
2022/03/02 01:33:29;;;;;;;38.80;25.00;;;5.30;99.90;;;;;;5017043;28;20056;-72
2022/03/02 01:35:55;;;;;;;37.08;24.15;;;5.00;99.90;;;;;;5016604;28;20073;-72
2022/03/02 01:38:20;;;;;;;37.90;25.02;;;5.30;99.90;;;;;;5016750;28;20488;-72
2022/03/02 01:40:46;;;;;;;42.13;24.73;;;5.10;99.90;;;;;;5033248;28;20041;-72
2022/03/02 01:43:13;;;;;;;38.10;24.75;;;5.00;99.90;;;;;;5000328;28;20041;-72
2022/03/02 01:45:39;;;;;;;39.80;25.50;;;5.00;99.90;;;;;;5033429;28;20045;-72
2022/03/02 01:48:05;;;;;;;41.25;24.90;;;5.00;99.90;;;;;;5016434;28;20049;-73
2022/03/02 01:50:31;;;;;;;40.75;25.05;;;6.00;99.90;;;;;;5032892;28;20049;-72
2022/03/02 01:52:57;;;;;;;39.85;25.48;;;5.10;99.90;;;;;;5016250;28;20037;-72
2022/03/02 01:55:24;;;;;;;37.08;25.63;;;5.00;99.90;;;;;;5016181;28;20041;-73
2022/03/02 01:57:50;;;;;;;39.88;25.13;;;5.00;99.90;;;;;;5016132;28;20115;-72
2022/03/02 02:00:19;;;;;;;39.72;25.45;;;5.00;99.90;;;;;;5016204;28;20044;-72
2022/03/02 02:02:46;;;;;;;41.60;27.25;;;4.90;99.90;;;;;;5015859;28;20076;-72
2022/03/02 02:05:12;;;;;;;42.42;26.48;;;5.00;99.90;;;;;;5016575;28;20053;-73
2022/03/02 02:07:37;;;;;;;42.50;26.67;;;5.00;99.90;;;;;;5016084;28;20148;-73
2022/03/02 02:10:05;;;;;;;43.80;26.10;;;4.90;99.90;;;;;;5032431;28;20041;-72
2022/03/02 02:12:32;;;;;;;43.15;27.40;;;5.00;99.90;;;;;;5015942;28;20049;-73
2022/03/02 02:14:59;;;;;;;43.63;27.55;;;5.30;99.90;;;;;;5016031;28;20037;-73
2022/03/02 02:17:25;;;;;;;44.67;28.10;;;4.90;99.90;;;;;;5015798;28;20064;-73
2022/03/02 02:19:52;;;;;;;42.92;27.15;;;4.90;99.90;;;;;;5015949;28;20153;-72
2022/03/02 02:22:18;;;;;;;44.03;26.92;;;4.90;99.90;;;;;;4999678;28;20042;-72
2022/03/02 02:24:44;;;;;;;44.60;28.77;;;5.80;99.90;;;;;;5032406;28;20081;-72
2022/03/02 02:27:12;;;;;;;41.70;27.00;;;5.50;99.90;;;;;;5032008;28;20046;-72
2022/03/02 02:29:42;;;;;;;45.03;28.70;;;4.90;99.90;;;;;;5057623;22;20057;-92
2022/03/02 02:32:08;;;;;;;39.13;27.40;;;5.00;99.90;;;;;;5044753;28;20137;-92
2022/03/02 02:34:35;;;;;;;46.40;28.90;;;4.40;99.90;;;;;;5057205;28;20464;-92
2022/03/02 02:37:01;;;;;;;46.35;28.85;;;5.10;99.90;;;;;;5040489;28;20106;-92
2022/03/02 02:39:27;;;;;;;45.10;29.92;;;4.80;99.90;;;;;;5040359;28;20033;-92
2022/03/02 02:41:53;;;;;;;42.67;28.98;;;4.70;99.90;;;;;;5023252;28;20497;-92
2022/03/02 02:44:19;;;;;;;42.13;28.08;;;4.80;99.90;;;;;;5038150;28;20049;-93
2022/03/02 02:46:45;;;;;;;43.03;28.95;;;5.10;99.90;;;;;;5055955;28;20037;-92
2022/03/02 02:49:11;;;;;;;44.70;28.58;;;5.20;99.90;;;;;;5023703;28;20055;-92
2022/03/02 02:51:40;;;;;;;43.22;29.55;;;5.00;99.90;;;;;;5022346;28;20049;-90
2022/03/02 02:54:06;;;;;;;45.60;28.35;;;4.90;99.90;;;;;;5038756;28;20436;-92
2022/03/02 02:56:31;;;;;;;46.38;28.73;;;4.90;99.90;;;;;;5039626;28;20056;-93
2022/03/02 02:58:57;;;;;;;44.20;29.00;;;6.20;99.90;;;;;;5039481;28;20140;-93
2022/03/02 03:01:23;;;;;;;47.65;28.58;;;4.90;99.90;;;;;;5039676;28;20052;-93
2022/03/02 03:03:49;;;;;;;44.85;29.58;;;4.80;99.90;;;;;;5039220;28;20045;-90
2022/03/02 03:06:15;;;;;;;45.38;28.17;;;5.90;99.90;;;;;;5039195;28;20105;-93
2022/03/02 03:08:40;;;;;;;52.67;29.60;;;6.30;99.90;;;;;;5006246;28;20049;-93
2022/03/02 03:11:06;;;;;;;48.17;30.98;;;6.80;99.90;;;;;;5006256;28;20374;-94
2022/03/02 03:13:32;;;;;;;46.03;30.48;;;4.60;99.90;;;;;;5039127;28;20044;-93
2022/03/02 03:15:58;;;;;;;48.40;30.70;;;6.30;99.90;;;;;;5038551;28;20128;-94
2022/03/02 03:18:24;;;;;;;45.63;29.73;;;6.90;99.90;;;;;;5038290;28;20400;-93
2022/03/02 03:20:50;;;;;;;43.58;28.52;;;4.60;99.90;;;;;;5038724;28;20059;-92
2022/03/02 03:23:16;;;;;;;45.88;29.45;;;6.30;99.90;;;;;;5006962;28;20048;-94
2022/03/02 03:25:41;;;;;;;44.25;29.40;;;6.70;99.90;;;;;;5021854;28;20439;-92
2022/03/02 03:28:07;;;;;;;44.70;29.15;;;4.70;99.90;;;;;;5021918;28;20041;-92
2022/03/02 03:30:34;;;;;;;48.08;29.98;;;4.60;99.90;;;;;;5022033;28;20057;-92
2022/03/02 03:33:02;;;;;;;45.00;28.38;;;6.30;99.90;;;;;;5039149;28;20476;-91
2022/03/02 03:35:28;;;;;;;42.55;29.17;;;5.00;99.90;;;;;;5039093;28;20049;-92
2022/03/02 03:37:54;;;;;;;43.45;28.83;;;4.80;99.90;;;;;;5039421;28;20121;-92
2022/03/02 03:40:21;;;;;;;41.17;27.10;;;4.60;99.90;;;;;;5039109;28;20092;-93
2022/03/02 03:42:47;;;;;;;44.65;29.48;;;4.60;99.90;;;;;;5039392;28;20045;-93
2022/03/02 03:45:14;;;;;;;46.40;29.38;;;6.80;99.90;;;;;;5022572;28;20456;-92
2022/03/02 03:47:40;;;;;;;43.17;28.48;;;6.60;99.90;;;;;;5038989;28;20045;-93
2022/03/02 03:50:08;;;;;;;46.75;29.38;;;6.80;99.90;;;;;;5038720;28;20080;-93
2022/03/02 03:52:34;;;;;;;45.70;29.75;;;4.50;99.90;;;;;;5038252;28;20072;-94
2022/03/02 03:55:00;;;;;;;48.53;30.63;;;6.10;99.90;;;;;;5053758;28;20049;-93
2022/03/02 03:57:26;;;;;;;44.78;28.08;;;6.10;99.90;;;;;;5038711;28;20051;-92
2022/03/02 03:59:51;;;;;;;48.00;31.02;;;5.30;99.90;;;;;;5022016;28;20044;-91
2022/03/02 04:02:18;;;;;;;44.78;29.10;;;4.70;99.90;;;;;;5020993;28;20036;-92
2022/03/02 04:04:44;;;;;;;44.50;30.27;;;4.80;99.90;;;;;;5038020;28;20045;-93
2022/03/02 04:07:09;;;;;;;48.22;31.58;;;4.40;99.90;;;;;;5038882;28;20395;-92
2022/03/02 04:09:35;;;;;;;44.90;30.30;;;6.30;99.90;;;;;;5022619;28;20045;-91
2022/03/02 04:12:02;;;;;;;50.50;31.08;;;4.30;99.90;;;;;;5042557;28;20080;-93
2022/03/02 04:14:28;;;;;;;48.55;31.23;;;4.40;99.90;;;;;;5046263;28;20496;-92
2022/03/02 04:16:53;;;;;;;47.53;30.60;;;4.50;99.90;;;;;;5041303;28;20051;-93
2022/03/02 04:19:19;;;;;;;43.33;29.13;;;5.60;99.90;;;;;;5046194;28;20428;-92
2022/03/02 04:21:45;;;;;;;46.15;29.83;;;6.60;99.90;;;;;;5024094;28;20056;-94
2022/03/02 04:24:11;;;;;;;46.63;29.77;;;4.10;99.90;;;;;;5039237;28;20376;-92
2022/03/02 04:26:37;;;;;;;47.00;30.52;;;6.20;99.90;;;;;;5039759;28;20045;-94
2022/03/02 04:29:03;;;;;;;44.45;29.58;;;6.20;99.90;;;;;;5041671;28;20033;-92
2022/03/02 04:31:28;;;;;;;46.63;29.92;;;4.00;99.90;;;;;;5027823;28;20041;-93
2022/03/02 04:33:54;;;;;;;46.65;28.98;;;4.80;99.90;;;;;;5043373;28;20080;-90
2022/03/02 04:36:20;;;;;;;47.88;30.65;;;4.30;99.90;;;;;;5041888;28;20048;-93
2022/03/02 04:38:46;;;;;;;45.60;29.58;;;6.00;99.90;;;;;;5044349;28;20079;-93
2022/03/02 04:41:12;;;;;;;46.00;30.85;;;4.10;99.90;;;;;;5042673;28;20098;-92
2022/03/02 04:43:38;;;;;;;48.25;29.92;;;5.00;99.90;;;;;;5010164;28;20059;-93
2022/03/02 04:46:07;;;;;;;45.05;29.45;;;3.70;99.90;;;;;;5010981;28;20045;-92
2022/03/02 04:48:32;;;;;;;46.53;28.60;;;5.90;99.90;;;;;;5025572;28;20052;-93
2022/03/02 04:50:58;;;;;;;48.75;29.83;;;3.90;99.90;;;;;;5042442;28;20574;-92
2022/03/02 04:53:24;;;;;;;44.35;28.27;;;1.80;99.90;;;;;;5042630;28;20053;-92
2022/03/02 04:55:50;;;;;;;46.53;28.17;;;4.90;99.90;;;;;;5042792;28;20103;-93
2022/03/02 04:58:16;;;;;;;45.45;29.20;;;5.00;99.90;;;;;;5042646;28;20099;-91
2022/03/02 05:00:42;;;;;;;47.22;28.02;;;5.50;99.90;;;;;;5040889;28;20045;-94
2022/03/02 05:03:08;;;;;;;48.00;29.98;;;5.40;99.90;;;;;;5040754;28;20041;-93
2022/03/02 05:05:36;;;;;;;45.25;29.05;;;2.90;99.90;;;;;;5042206;28;20036;-94
2022/03/02 05:08:04;;;;;;;45.45;27.88;;;5.20;99.90;;;;;;5041404;28;20076;-91
2022/03/02 05:10:30;;;;;;;50.00;31.17;;;2.90;99.90;;;;;;5040139;28;20053;-92
2022/03/02 05:12:56;;;;;;;48.10;29.05;;;3.20;99.90;;;;;;5041647;28;20160;-93
2022/03/02 05:15:22;;;;;;;49.08;30.55;;;3.30;99.90;;;;;;5041701;28;20044;-92
2022/03/02 05:17:49;;;;;;;50.22;30.45;;;2.80;99.90;;;;;;5041785;28;20477;-93
2022/03/02 05:20:17;;;;;;;47.97;30.23;;;1.80;99.90;;;;;;5041846;28;20179;-92
2022/03/02 05:22:44;;;;;;;46.67;29.55;;;4.60;99.90;;;;;;5041325;28;20053;-92
2022/03/02 05:25:12;;;;;;;50.95;29.60;;;2.50;99.90;;;;;;5041802;28;20095;-93
2022/03/02 05:27:39;;;;;;;46.97;28.63;;;4.50;99.90;;;;;;5041268;28;20468;-93
2022/03/02 05:30:06;;;;;;;45.75;27.55;;;2.80;99.90;;;;;;5025316;28;20065;-92
2022/03/02 05:32:32;;;;;;;45.17;29.58;;;2.50;99.90;;;;;;5041432;28;20099;-93
2022/03/02 05:34:58;;;;;;;48.28;28.25;;;3.40;99.90;;;;;;5041216;28;20472;-93
2022/03/02 05:37:24;;;;;;;47.15;27.60;;;0.60;99.90;;;;;;5040009;28;20455;-94
2022/03/02 05:39:49;;;;;;;51.40;30.40;;;4.60;99.90;;;;;;5040144;28;20033;-92
2022/03/02 05:42:18;;;;;;;50.72;29.88;;;3.90;99.90;;;;;;5041278;28;20091;-91
2022/03/02 05:44:46;;;;;;;47.22;27.83;;;2.30;99.90;;;;;;5023971;28;20045;-92
2022/03/02 05:47:12;;;;;;;48.22;29.88;;;2.30;99.90;;;;;;5039165;28;20052;-92
2022/03/02 05:49:41;;;;;;;48.65;29.73;;;3.60;99.90;;;;;;5040695;28;20419;-92
2022/03/02 05:52:07;;;;;;;49.30;29.65;;;4.00;99.90;;;;;;5058406;28;20040;-91
2022/03/02 05:54:33;;;;;;;48.92;28.23;;;4.60;99.90;;;;;;5025100;28;20045;-93
2022/03/02 05:56:58;;;;;;;50.45;30.85;;;4.40;99.90;;;;;;5041613;28;20142;-93
2022/03/02 05:59:24;;;;;;;47.97;27.98;;;3.40;99.90;;;;;;5041161;28;20052;-94
2022/03/02 06:01:50;;;;;;;49.25;29.13;;;3.90;99.90;;;;;;5024909;28;20049;-93
2022/03/02 06:04:18;;;;;;;52.67;31.08;;;1.80;99.90;;;;;;5024634;28;20094;-93
2022/03/02 06:06:44;;;;;;;48.45;29.00;;;4.30;99.90;;;;;;5041534;28;20049;-93
2022/03/02 06:09:10;;;;;;;47.83;28.52;;;4.50;99.90;;;;;;5041651;28;20037;-93
2022/03/02 06:11:38;;;;;;;46.25;27.35;;;1.20;99.90;;;;;;5040922;28;20049;-93
2022/03/02 06:14:04;;;;;;;44.33;27.23;;;3.60;99.90;;;;;;5040084;28;20109;-92
2022/03/02 06:16:30;;;;;;;45.15;26.40;;;1.70;99.90;;;;;;5036452;28;20553;-92
2022/03/02 06:18:56;;;;;;;47.70;29.13;;;1.70;99.90;;;;;;5027276;28;20069;-92
2022/03/02 06:21:24;;;;;;;51.00;29.75;;;1.80;99.90;;;;;;5052342;28;20484;-91
2022/03/02 06:23:56;;;;;;;50.50;28.75;;;1.60;99.90;;;;;;5039414;28;20060;-93
2022/03/02 06:26:24;;;;;;;49.53;29.83;;;1.90;99.90;;;;;;5039970;28;20144;-92
2022/03/02 06:28:50;;;;;;;50.55;29.67;;;1.90;99.90;;;;;;5040327;28;20110;-93
2022/03/02 06:31:18;;;;;;;49.25;29.65;;;2.70;99.90;;;;;;5039945;28;20064;-93
2022/03/02 06:33:46;;;;;;;53.65;30.83;;;3.90;99.90;;;;;;5039555;28;20048;-93
2022/03/02 06:36:13;;;;;;;51.40;30.35;;;1.60;99.90;;;;;;5023844;28;20037;-93
2022/03/02 06:38:39;;;;;;;49.38;29.27;;;2.50;99.90;;;;;;5040826;28;20045;-92
2022/03/02 06:41:28;;;;;;;47.40;29.35;;;1.70;99.90;;;;;;5024481;28;20132;-94
2022/03/02 06:44:10;;;;;;;54.22;30.45;;;2.00;99.90;;;;;;5040274;28;20096;-93
2022/03/02 06:46:59;;;;;;;49.72;29.80;;;1.60;99.90;;;;;;5040709;28;20106;-93
2022/03/02 06:50:02;;;;;;;51.03;29.13;;;3.20;99.90;;;;;;5030371;28;20089;-93
2022/03/02 06:52:35;;;;;;;47.95;28.92;;;1.70;99.90;;;;;;5040014;28;20052;-93
2022/03/02 06:55:08;;;;;;;46.65;29.33;;;2.20;99.90;;;;;;5041124;28;20484;-92
2022/03/02 06:57:35;;;;;;;47.92;28.83;;;1.70;99.90;;;;;;5057934;28;20122;-92
2022/03/02 07:00:13;;;;;;;47.65;29.40;;;2.90;99.90;;;;;;5040661;28;20071;-93
2022/03/02 07:02:44;;;;;;;48.08;29.98;;;1.90;99.90;;;;;;5041741;28;20056;-94
2022/03/02 07:05:10;;;;;;;47.35;27.02;;;4.40;99.90;;;;;;5041092;28;20374;-93
2022/03/02 07:07:37;;;;;;;47.42;27.55;;;1.90;99.90;;;;;;5040715;28;20484;-92
2022/03/02 07:10:07;;;;;;;47.38;28.65;;;2.60;99.90;;;;;;5041911;28;20395;-94
2022/03/02 07:12:33;;;;;;;45.50;28.38;;;2.20;99.90;;;;;;5024834;28;20049;-93
2022/03/02 07:14:59;;;;;;;48.42;28.67;;;2.40;99.90;;;;;;5042233;28;20045;-93
2022/03/02 07:17:27;;;;;;;43.50;27.50;;;2.10;99.90;;;;;;5042700;28;20113;-93
2022/03/02 07:19:53;;;;;;;46.35;30.27;;;2.20;99.90;;;;;;5040385;28;20052;-94
2022/03/02 07:22:22;;;;;;;47.35;27.60;;;4.10;99.90;;;;;;5041683;28;20112;-94
2022/03/02 07:24:54;;;;;;;47.33;28.55;;;2.80;99.90;;;;;;5039660;28;20098;-93
2022/03/02 07:27:21;;;;;;;46.90;29.13;;;5.30;99.90;;;;;;5040299;28;20036;-94
2022/03/02 07:29:53;;;;;;;44.95;27.73;;;3.80;99.90;;;;;;5024251;28;20411;-93
2022/03/02 07:32:28;;;;;;;45.78;27.17;;;2.30;99.90;;;;;;5040567;28;20487;-92
2022/03/02 07:34:58;;;;;;;45.38;27.60;;;2.30;99.90;;;;;;5040519;28;20127;-90
2022/03/02 07:37:26;;;;;;;45.67;28.30;;;5.00;99.90;;;;;;5022825;28;20043;-90
2022/03/02 07:39:57;;;;;;;48.80;29.40;;;3.00;99.90;;;;;;5056530;28;20089;-93
2022/03/02 07:42:24;;;;;;;45.00;28.20;;;4.40;99.90;;;;;;5040395;28;20052;-93
2022/03/02 07:44:51;;;;;;;44.78;27.58;;;4.80;99.90;;;;;;5039582;28;20099;-93
2022/03/02 07:47:18;;;;;;;55.40;31.33;;;3.30;99.90;;;;;;5039188;28;20102;-91
2022/03/02 07:49:45;;;;;;;54.17;33.22;;;5.30;99.90;;;;;;5039301;28;20055;-93
2022/03/02 07:52:11;;;;;;;44.10;28.08;;;3.10;99.90;;;;;;5039143;28;20081;-93
2022/03/02 07:54:39;;;;;;;43.10;26.83;;;5.20;99.90;;;;;;5040127;28;20052;-95
2022/03/02 07:57:13;;;;;;;40.38;27.55;;;5.20;99.90;;;;;;5040132;28;20102;-92
2022/03/02 07:59:42;;;;;;;42.92;26.55;;;5.00;99.90;;;;;;5040053;28;20037;-91
2022/03/02 08:02:10;;;;;;;43.83;26.80;;;6.00;99.90;;;;;;5056364;28;20067;-93
2022/03/02 08:04:37;;;;;;;43.08;26.30;;;5.60;99.90;;;;;;5024036;28;20619;-92
2022/03/02 08:07:04;;;;;;;42.80;24.38;;;3.70;99.90;;;;;;5040181;28;20052;-92
2022/03/02 08:09:34;;;;;;;41.72;25.25;;;3.60;99.90;;;;;;5039558;28;20057;-95
2022/03/02 08:12:01;;;;;;;42.50;27.27;;;5.90;99.90;;;;;;5038200;28;20107;-92
2022/03/02 08:14:31;;;;;;;41.95;25.95;;;4.70;99.90;;;;;;5040757;28;20114;-93
2022/03/02 08:16:57;;;;;;;46.47;26.08;;;6.60;99.90;;;;;;5051076;28;20041;-94
2022/03/02 08:19:23;;;;;;;42.08;26.30;;;4.50;99.90;;;;;;5042164;28;20045;-91
2022/03/02 08:21:58;;;;;;;43.55;26.30;;;6.80;99.90;;;;;;5050876;28;20048;-93
2022/03/02 08:24:26;;;;;;;40.25;25.00;;;6.20;99.90;;;;;;5041186;28;20052;-93
2022/03/02 08:26:56;;;;;;;42.50;25.50;;;7.80;99.90;;;;;;5023501;28;20552;-93
2022/03/02 08:29:25;;;;;;;38.70;25.15;;;5.00;99.90;;;;;;5024321;28;20049;-93
2022/03/02 08:31:51;;;;;;;40.95;25.95;;;;;;;;;;5039056;28;20143;-93
2022/03/02 08:34:18;;;;;;;38.00;24.35;;;;;;;;;;5039061;28;20052;-94
2022/03/02 08:36:44;;;;;;;40.85;25.35;;;4.70;99.90;;;;;;5040092;28;20552;-93
2022/03/02 08:39:12;;;;;;;41.13;25.33;;;4.80;99.90;;;;;;5039329;28;20477;-93
2022/03/02 08:41:39;;;;;;;41.08;25.73;;;6.80;99.90;;;;;;5040571;28;20045;-93
2022/03/02 08:44:12;;;;;;;40.53;25.45;;;6.80;99.90;;;;;;5056251;28;20053;-92
2022/03/02 08:46:38;;;;;;;38.65;25.75;;;6.00;99.90;;;;;;5039162;28;20048;-93
2022/03/02 08:49:07;;;;;;;38.30;24.48;;;5.30;99.90;;;;;;5040843;28;20495;-93
2022/03/02 08:51:35;;;;;;;40.08;24.70;;;5.90;99.90;;;;;;5041659;28;20037;-94
2022/03/02 08:54:03;;;;;;;35.92;24.50;;;5.20;99.90;;;;;;5038094;28;20053;-92
2022/03/02 08:56:32;;;;;;;37.22;24.55;;;5.30;99.90;;;;;;5039733;28;20060;-91
2022/03/02 08:59:03;;;;;;;40.85;24.70;;;5.30;99.90;;;;;;5039167;28;20064;-92
2022/03/02 09:01:30;;;;;;;38.45;24.00;;;4.00;99.90;;;;;;5040724;28;20041;-92
2022/03/02 09:04:01;;;;;;;40.10;23.92;;;7.40;99.90;;;;;;5022850;28;20049;-91
2022/03/02 09:06:28;;;;;;;38.97;24.73;;;6.30;99.90;;;;;;5038245;28;20447;-93
2022/03/02 09:08:58;;;;;;;38.45;26.42;;;;;;;;;;5039223;28;20041;-92
2022/03/02 09:11:23;;;;;;;40.25;25.33;;;5.80;99.90;;;;;;5039970;28;20102;-92
2022/03/02 09:13:50;;;;;;;39.63;26.63;;;5.90;99.90;;;;;;5041608;28;20048;-93
2022/03/02 09:16:16;;;;;;;37.75;24.63;;;6.00;99.90;;;;;;5043705;28;20045;-91
2022/03/02 09:18:42;;;;;;;38.70;25.23;;;7.30;99.90;;;;;;5026754;28;20080;-92
2022/03/02 09:21:08;;;;;;;35.60;23.42;;;6.30;99.90;;;;;;5027114;28;20044;-92
2022/03/02 09:23:43;;;;;;;38.88;25.75;;;6.00;99.90;;;;;;5026589;28;20045;-91
2022/03/02 09:26:12;;;;;;;38.47;24.52;;;7.20;99.90;;;;;;5043418;28;20049;-93
2022/03/02 09:28:44;;;;;;;40.63;24.90;;;6.60;99.90;;;;;;5026529;28;20045;-93
2022/03/02 09:31:13;;;;;;;34.65;23.25;;;6.40;99.90;;;;;;5042616;28;20061;-93
2022/03/02 09:33:39;;;;;;;41.67;24.67;;;7.90;99.90;;;;;;5059885;28;20052;-93
2022/03/02 09:36:11;;;;;;;36.92;24.58;;;6.40;99.90;;;;;;5043139;28;20373;-93
2022/03/02 09:38:37;;;;;;;;;;;6.50;99.90;;;;;;5058524;28;20049;-93
2022/03/02 09:41:18;;;;;;;38.72;24.63;;;6.40;99.90;;;;;;5042926;28;19905;-93
2022/03/02 09:43:52;;;;;;;35.42;24.13;;;7.30;99.90;;;;;;5042171;28;20534;-93
2022/03/02 09:46:27;;;;;;;39.03;25.92;;;5.20;99.90;;;;;;5042104;28;20051;-93
2022/03/02 09:49:01;;;;;;;38.50;23.98;;;8.70;99.90;;;;;;5042558;28;20028;-93
2022/03/02 09:51:31;;;;;;;33.90;22.52;;;6.60;99.90;;;;;;5043114;28;20041;-91
2022/03/02 09:53:58;;;;;;;34.03;22.08;;;6.80;99.90;;;;;;5059650;28;20049;-93
2022/03/02 09:56:35;;;;;;;36.40;23.67;;;6.70;99.90;;;;;;5044800;28;20119;-93
2022/03/02 09:59:06;;;;;;;34.78;23.17;;;7.30;99.90;;;;;;5044101;28;20111;-91
2022/03/02 10:01:34;;;;;;;36.25;23.60;;;7.10;99.90;;;;;;5043107;28;20130;-92
2022/03/02 10:04:17;;;;;;;33.25;22.38;;;7.00;99.90;;;;;;5044102;28;20044;-93
2022/03/02 10:06:44;;;;;;;32.22;22.65;;;7.20;99.90;;;;;;5041380;28;20053;-92
2022/03/02 10:09:13;;;;;;;32.78;22.23;;;7.20;99.90;;;;;;5042144;28;20044;-92
2022/03/02 10:11:43;;;;;;;33.53;23.02;;;7.20;99.90;;;;;;5059141;28;20390;-90
2022/03/02 10:14:10;;;;;;;33.33;22.42;;;7.40;99.90;;;;;;5041907;28;20063;-93
2022/03/02 10:16:45;;;;;;;35.17;24.08;;;7.30;99.90;;;;;;5046249;28;20041;-92
2022/03/02 10:19:31;;;;;;;36.13;23.23;;;8.00;99.90;;;;;;5045334;28;20052;-92
2022/03/02 10:22:47;;;;;;;35.65;23.83;;;7.60;99.90;;;;;;5029066;28;20049;-94
2022/03/02 10:25:16;;;;;;;33.47;23.13;;;7.90;99.90;;;;;;5007421;28;20074;-92
2022/03/02 10:27:59;;;;;;;34.38;23.70;;;7.80;99.90;;;;;;5040243;28;20041;-92
2022/03/02 10:30:32;;;;;;;34.55;22.85;;;9.80;99.90;;;;;;5039152;28;20057;-94
2022/03/02 10:33:28;;;;;;;38.47;22.10;;;7.90;99.90;;;;;;5040685;28;20079;-93
2022/03/02 10:36:01;;;;;;;36.42;22.73;;;8.20;99.90;;;;;;5033122;28;20064;-94
2022/03/02 10:38:55;;;;;;;32.10;22.65;;;8.10;99.90;;;;;;5040869;28;20130;-93
2022/03/02 10:41:21;;;;;;;37.50;23.77;;;6.90;99.90;;;;;;5040981;28;20416;-93
2022/03/02 10:44:06;;;;;;;32.75;23.00;;;8.40;99.90;;;;;;5041954;28;20155;-92
2022/03/02 10:46:36;;;;;;;34.15;21.58;;;8.50;99.90;;;;;;5041848;28;20033;-93
2022/03/02 10:49:20;;;;;;;32.35;22.00;;;7.40;99.90;;;;;;5040825;28;20044;-93
2022/03/02 10:51:47;;;;;;;35.67;23.35;;;9.70;99.90;;;;;;5058426;28;20025;-95
2022/03/02 10:54:21;;;;;;;31.65;22.38;;;8.70;99.90;;;;;;5042605;28;20056;-95
2022/03/02 10:56:54;;;;;;;33.92;23.33;;;7.80;99.90;;;;;;5040929;28;20398;-92
2022/03/02 10:59:26;;;;;;;33.58;22.35;;;8.80;99.90;;;;;;5059318;28;20052;-96
2022/03/02 11:01:53;;;;;;;31.77;21.58;;;8.80;99.90;;;;;;5038655;28;20037;-95
2022/03/02 11:04:22;;;;;;;32.63;21.83;;;9.00;99.90;;;;;;5041927;28;20041;-94
2022/03/02 11:06:48;;;;;;;31.30;20.60;;;9.60;99.90;;;;;;5041880;28;20048;-94
2022/03/02 11:09:53;;;;;;;29.98;19.67;;;8.90;99.90;;;;;;5041492;28;20461;-92
2022/03/02 11:12:25;;;;;;;32.03;20.13;;;8.70;99.90;;;;;;5032992;28;20510;-91
2022/03/02 11:14:58;;;;;;;29.23;20.30;;;9.20;99.90;;;;;;5041127;28;20052;-91
2022/03/02 11:17:26;;;;;;;33.20;19.65;;;9.40;99.90;;;;;;5057506;28;20052;-93
2022/03/02 11:19:53;;;;;;;32.22;19.67;;;9.40;99.90;;;;;;5041229;28;20049;-92
2022/03/02 11:22:22;;;;;;;27.63;19.75;;;9.20;99.90;;;;;;5040061;28;20497;-94
2022/03/02 11:24:53;;;;;;;31.05;20.48;;;9.50;99.90;;;;;;5024110;28;20044;-95
2022/03/02 11:27:48;;;;;;;30.27;21.02;;;9.60;99.90;;;;;;5040151;28;20132;-92
2022/03/02 11:30:16;;;;;;;31.20;19.85;;;10.10;99.90;;;;;;5023814;28;20424;-92
2022/03/02 11:32:47;;;;;;;27.70;19.33;;;9.40;99.90;;;;;;5041318;28;20106;-92
2022/03/02 11:35:17;;;;;;;33.22;20.17;;;9.70;99.90;;;;;;5040710;28;20400;-90
2022/03/02 11:37:43;;;;;;;31.58;19.50;;;10.10;99.90;;;;;;5039621;28;20484;-92
2022/03/02 11:40:15;;;;;;;30.77;20.23;;;9.80;99.90;;;;;;5040269;28;20614;-93
2022/03/02 11:42:43;;;;;;;29.88;19.35;;;10.40;99.90;;;;;;5041542;28;20084;-93
2022/03/02 11:45:25;;;;;;;26.48;19.10;;;12.50;99.90;;;;;;5024290;28;20048;-93
2022/03/02 11:47:55;;;;;;;26.98;19.00;;;11.50;99.90;;;;;;5026527;28;20049;-93
2022/03/02 11:50:21;;;;;;;30.57;19.13;;;12.60;99.90;;;;;;5024193;28;20407;-93
2022/03/02 11:52:47;;;;;;;28.25;18.05;;;10.60;99.90;;;;;;5007515;28;20135;-93
2022/03/02 11:55:16;;;;;;;27.23;19.75;;;11.00;99.90;;;;;;5023485;28;20072;-91
2022/03/02 11:57:50;;;;;;;29.02;19.50;;;10.90;99.90;;;;;;5056698;28;20550;-94
2022/03/02 12:00:34;;;;;;;25.40;18.90;;;11.50;99.90;;;;;;5039572;28;20427;-93
2022/03/02 12:03:07;;;;;;;30.40;18.80;;;10.20;99.90;;;;;;5039617;28;20055;-94
2022/03/02 12:05:36;;;;;;;27.65;19.30;;;11.30;99.90;;;;;;5040044;28;20052;-94
2022/03/02 12:08:16;;;;;;;26.60;18.80;;;12.20;99.90;;;;;;5037938;28;20106;-93
2022/03/02 12:10:52;;;;;;;26.05;17.73;;;11.90;99.90;;;;;;5039275;28;20060;-94
2022/03/02 12:13:19;;;;;;;24.65;18.42;;;11.70;99.90;;;;;;5038732;28;20049;-92
2022/03/02 12:15:47;;;;;;;29.15;19.33;;;;;;;;;;5041368;28;20037;-91
2022/03/02 12:18:18;;;;;;;25.38;18.42;;;12.30;99.90;;;;;;5041206;28;20051;-92
2022/03/02 12:20:54;;;;;;;33.63;20.23;;;12.20;99.90;;;;;;5029681;28;20053;-93
2022/03/02 12:23:28;;;;;;;25.77;18.27;;;12.40;99.90;;;;;;5026112;28;20052;-93
2022/03/02 12:25:55;;;;;;;27.38;18.45;;;12.40;99.90;;;;;;5042576;28;20447;-91
2022/03/02 12:28:22;;;;;;;23.38;16.73;;;12.50;99.90;;;;;;5038465;28;20506;-92
2022/03/02 12:30:48;;;;;;;24.40;18.08;;;12.50;99.90;;;;;;5022771;28;20128;-92
2022/03/02 12:33:18;;;;;;;22.83;17.50;;;13.00;99.90;;;;;;5040504;28;20377;-93
2022/03/02 12:35:52;;;;;;;23.52;17.30;;;13.00;99.90;;;;;;5040459;28;20041;-93
2022/03/02 12:38:21;;;;;;;25.40;17.88;;;13.20;99.90;;;;;;5009883;28;20041;-94
2022/03/02 12:40:47;;;;;;;21.95;17.95;;;13.50;99.90;;;;;;5041556;28;20141;-91
2022/03/02 12:43:16;;;;;;;30.13;17.73;;;13.50;99.90;;;;;;5040471;28;20041;-94
2022/03/02 12:45:50;;;;;;;23.95;17.23;;;14.10;99.90;;;;;;5023434;28;20048;-93